Aviation Digital Data Service (ADDS)

Output produced by METARs form (0050 UTC 21 November 2017)
found at http://www.aviationweather.gov/adds/metars/
 
KALN 202350Z 16012KT 10SM SKC 09/M01 A2988
KALN 202245Z 18012G20KT 10SM SCT200 11/M01 A2989
KALN 202146Z 18016G22KT 10SM SCT200 13/00 A2991
KALN 202048Z 21014G20KT 10SM SCT200 14/M01 A2991
KALN 201947Z 21014G20KT 10SM SCT200 14/00 A2994